Latest Weather Observations for Burketown Airport

IDQ60801

Issued at 1:02 pm EST Friday 26 August 2016 (issued every 30 minutes, with the page automatically refreshed every 10 minutes)

About weather observations | Map of weather stations | Latest weather observations for QLD | Other Formats
Station Details ID: 029077 Name: BURKETOWN AIRPORT Lat: -17.75 Lon: 139.54 Height: 5.7 m
Data from the previous 72 hours. | See also: Recent months at Burketown Airport
Date/Time
EST
Temp
°C
App
Temp
°C
Dew
Point
°C
Rel
Hum
%
Delta-T
°C
Wind Press
QNH
hPa
Press
MSL
hPa
Rain since
9am
mm
Dir  Spd
km/h
Gust
km/h
Spd
kts
Gust
kts
26/01:00pm 25.7 17.6 1.1 20 11.6 SSE 33 43 18 23 1017.0 - 0.0
26/12:30pm 25.1 17.1 1.9 22 11.0 S 33 44 18 24 1017.6 - 0.0
26/12:12pm 24.3 16.0 -0.1 20 11.1 S 33 52 18 28 1017.9 - 0.0
26/12:00pm 23.9 15.0 0.9 22 10.6 SSE 37 48 20 26 1018.1 1018.0 0.0
26/11:30am 23.5 15.0 1.2 23 10.4 S 35 46 19 25 1018.7 - 0.0
26/11:00am 22.7 14.8 2.2 26 9.7 S 33 43 18 23 1019.1 - 0.0
26/10:30am 21.7 14.0 2.4 28 9.1 S 32 41 17 22 1019.4 - 0.0
26/10:00am 20.7 13.5 3.0 31 8.3 SSE 30 43 16 23 1019.7 - 0.0
26/09:30am 19.6 12.0 3.7 35 7.5 SSE 33 43 18 23 1019.7 - 0.0
26/09:00am 18.1 11.4 3.9 39 6.7 SSE 28 37 15 20 1019.8 1019.7 0.0
26/08:30am 16.7 10.9 4.4 44 5.8 SSE 24 32 13 17 1019.6 - 0.0
26/08:00am 15.4 10.6 4.5 48 5.1 SSE 19 28 10 15 1019.6 - 0.0
26/07:30am 14.6 9.7 4.3 50 4.8 SSE 19 26 10 14 1019.5 - 0.0
26/07:00am 14.9 10.0 4.0 48 5.0 SSE 19 30 10 16 1019.1 - 0.0
26/06:30am 15.1 9.6 3.9 47 5.1 S 22 30 12 16 1018.7 - 0.0
26/06:00am 15.2 10.1 4.0 47 5.1 S 20 28 11 15 1018.3 1018.2 0.0
26/05:30am 15.2 10.0 3.7 46 5.3 S 20 26 11 14 1018.0 - 0.0
26/05:00am 15.8 10.2 3.6 44 5.6 S 22 32 12 17 1017.8 - 0.0
26/04:30am 16.3 10.3 3.4 42 5.9 S 24 32 13 17 1017.5 - 0.0
26/04:00am 17.0 10.2 3.0 39 6.4 S 28 39 15 21 1017.3 - 0.0
26/03:30am 17.4 9.8 3.0 38 6.6 S 32 43 17 23 1017.1 - 0.0
26/03:00am 17.5 11.0 2.7 37 6.7 S 26 35 14 19 1017.1 1017.0 0.0
26/02:30am 17.1 11.8 3.1 39 6.4 S 20 28 11 15 1016.8 - 0.0
26/02:00am 16.6 12.0 3.6 42 6.0 S 17 20 9 11 1016.8 - 0.0
26/01:30am 17.2 12.6 3.5 40 6.3 S 17 20 9 11 1016.8 - 0.0
26/01:00am 17.8 12.1 2.9 37 6.9 S 22 28 12 15 1016.6 - 0.0
26/12:30am 18.5 12.3 2.4 34 7.4 S 24 30 13 16 1016.5 - 0.0
26/12:00am 19.3 12.7 2.2 32 7.8 S 26 32 14 17 1016.4 1016.3 0.0
 
Date/Time
EST
Temp
°C
App
Temp
°C
Dew
Point
°C
Rel
Hum
%
Delta-T
°C
Wind Press
QNH
hPa
Press
MSL
hPa
Rain since
9am
mm
Dir  Spd
km/h
Gust
km/h
Spd
kts
Gust
kts
25/11:30pm 19.4 13.2 2.3 32 7.9 S 24 33 13 18 1016.3 - 0.0
25/11:00pm 19.2 14.0 2.6 33 7.7 S 19 24 10 13 1016.1 - 0.0
25/10:30pm 19.5 14.4 2.8 33 7.8 S 19 24 10 13 1015.7 - 0.0
25/10:00pm 19.7 14.7 3.4 34 7.7 S 19 20 10 11 1015.5 - 0.0
25/09:30pm 20.3 15.3 3.5 33 8.0 SSW 19 24 10 13 1015.1 - 0.0
25/09:00pm 20.7 16.1 3.9 33 8.1 SSW 17 20 9 11 1015.0 1014.9 0.0
25/08:30pm 21.5 17.3 3.7 31 8.6 SSW 15 20 8 11 1014.8 - 0.0
25/08:00pm 22.5 17.6 4.1 30 9.0 SSW 19 22 10 12 1014.4 - 0.0
25/07:30pm 21.7 18.2 5.6 35 8.0 S 13 13 7 7 1013.9 - 0.0
25/07:00pm 23.6 19.7 5.5 31 9.1 SSW 15 17 8 9 1013.2 - 0.0
25/06:30pm 25.3 20.5 4.4 26 10.4 S 19 24 10 13 1012.9 - 0.0
25/06:00pm 26.7 22.3 4.5 24 11.2 S 17 24 9 13 1012.5 1012.4 0.0
25/05:30pm 27.4 23.1 5.1 24 11.4 S 17 26 9 14 1012.3 - 0.0
25/05:00pm 28.0 23.3 5.0 23 11.8 SSW 19 30 10 16 1012.3 - 0.0
25/04:30pm 27.4 22.6 5.6 25 11.3 SSE 20 32 11 17 1012.1 - 0.0
25/04:00pm 27.2 22.2 6.6 27 10.8 S 22 35 12 19 1012.0 - 0.0
25/03:30pm 27.3 23.4 7.2 28 10.7 SSE 17 28 9 15 1012.2 - 0.0
25/03:00pm 26.7 21.1 7.2 29 10.3 S 26 35 14 19 1012.3 1012.2 0.0
25/02:30pm 26.3 22.1 8.3 32 9.7 S 20 30 11 16 1012.5 - 0.0
25/02:00pm 26.6 21.7 8.6 32 9.8 S 24 35 13 19 1013.1 - 0.0
25/01:30pm 25.5 20.4 9.3 36 8.8 S 26 33 14 18 1013.6 - 0.0
25/01:00pm 24.9 20.4 10.0 39 8.2 S 24 35 13 19 1014.0 - 0.0
25/12:30pm 24.0 19.5 9.9 41 7.7 S 24 33 13 18 1014.3 - 0.0
25/12:00pm 23.1 18.7 10.5 45 6.9 S 24 35 13 19 1014.7 1014.6 0.0
25/11:30am 22.5 17.1 10.9 48 6.4 S 30 39 16 21 1015.2 - 0.0
25/11:00am 21.7 16.0 11.1 51 5.9 SSE 32 41 17 22 1015.5 - 0.0
25/10:30am 20.4 14.2 9.9 51 5.6 SSE 33 41 18 22 1016.2 - 0.0
25/10:00am 19.6 13.3 9.8 53 5.2 SSE 33 43 18 23 1016.3 - 0.0
25/09:30am 19.6 13.7 10.6 56 4.9 SSE 32 43 17 23 1016.3 - 0.0
25/09:00am 18.4 12.2 10.0 58 4.5 SSE 33 46 18 25 1016.1 1016.0 16.6
25/08:30am 18.0 12.6 10.9 63 3.8 SSE 30 44 16 24 1016.0 - 16.6
25/08:00am 17.3 12.3 11.1 67 3.3 SSE 28 37 15 20 1015.5 - 16.6
25/07:30am 16.7 13.0 11.6 72 2.8 S 22 28 12 15 1015.5 - 16.6
25/07:00am 16.6 12.5 11.5 72 2.8 S 24 32 13 17 1015.1 - 16.6
25/06:30am 16.8 13.3 12.3 75 2.5 S 22 30 12 16 1014.7 - 16.6
25/06:00am 17.1 13.4 12.8 76 2.4 S 24 30 13 16 1014.0 1013.9 16.6
25/05:30am 17.5 14.1 13.6 78 2.2 SSE 24 33 13 18 1013.1 - 16.6
25/05:00am 18.0 13.9 13.9 77 2.3 SSE 28 35 15 19 1012.8 - 16.6
25/04:30am 18.4 15.3 14.5 78 2.3 SSE 24 30 13 16 1012.7 - 16.6
25/04:00am 18.5 17.0 15.2 81 1.9 S 17 20 9 11 1012.8 - 16.6
25/03:30am 19.0 17.0 14.9 77 2.4 SSE 19 28 10 15 1012.9 - 16.6
25/03:00am 19.3 17.3 15.0 76 2.5 S 19 24 10 13 1013.0 1012.9 16.6
25/02:30am 19.7 17.7 14.9 74 2.8 SSE 19 24 10 13 1012.9 - 16.6
25/02:00am 20.2 17.7 15.2 73 2.9 SSE 22 28 12 15 1013.1 - 16.6
25/01:30am 20.7 19.1 16.5 77 2.5 SSE 20 24 11 13 1013.0 - 16.6
25/01:00am 21.1 20.1 17.5 80 2.2 SSE 19 24 10 13 1013.1 - 16.6
25/12:30am 21.2 21.6 17.2 78 2.4 SSE 11 15 6 8 1013.3 - 16.6
25/12:00am 21.4 21.0 17.2 77 2.6 SSE 15 20 8 11 1013.1 1013.0 16.6
 
Date/Time
EST
Temp
°C
App
Temp
°C
Dew
Point
°C
Rel
Hum
%
Delta-T
°C
Wind Press
QNH
hPa
Press
MSL
hPa
Rain since
9am
mm
Dir  Spd
km/h
Gust
km/h
Spd
kts
Gust
kts
24/11:30pm 21.8 21.0 17.2 75 2.8 SSE 17 20 9 11 1013.1 - 16.6
24/11:00pm 22.6 20.9 17.1 71 3.4 SE 22 28 12 15 1013.0 - 16.6
24/10:30pm 23.1 22.4 18.6 76 2.8 SSE 20 30 11 16 1012.7 - 16.6
24/10:00pm 23.6 24.0 19.9 80 2.4 SSE 17 22 9 12 1012.2 - 16.6
24/09:30pm 23.8 23.7 19.9 79 2.5 SSE 20 26 11 14 1011.7 - 16.6
24/09:00pm 24.1 24.2 20.0 78 2.7 SSE 19 24 10 13 1011.5 1011.4 16.6
24/08:30pm 24.3 25.6 20.2 78 2.7 SSE 13 19 7 10 1011.4 - 16.6
24/08:00pm 24.4 25.8 20.3 78 2.7 S 13 17 7 9 1011.1 - 16.6
24/07:30pm 24.6 25.7 19.7 74 3.2 SSE 13 17 7 9 1010.6 - 16.6
24/07:00pm 25.0 26.1 19.6 72 3.5 S 13 15 7 8 1010.1 - 16.6
24/06:30pm 25.6 26.5 19.3 68 4.0 S 13 15 7 8 1009.8 - 16.6
24/06:00pm 26.1 27.0 19.2 65 4.4 S 13 17 7 9 1009.4 1009.3 16.6
24/05:30pm 26.5 27.3 19.9 67 4.3 S 15 20 8 11 1009.2 - 16.6
24/05:00pm 26.6 26.9 19.7 66 4.5 SSW 17 20 9 11 1008.9 - 16.6
24/04:30pm 26.3 27.3 20.2 69 4.0 SSE 15 19 8 10 1008.7 - 16.6
24/04:00pm 27.0 28.6 20.8 69 4.1 SSW 13 17 7 9 1008.5 - 16.6
24/03:30pm 26.4 26.8 19.8 67 4.3 SSW 17 22 9 12 1008.8 - 16.6
24/03:00pm 26.5 26.6 20.3 68 4.1 SSW 20 32 11 17 1008.5 1008.4 16.6
24/02:30pm 25.5 25.8 20.5 74 3.3 SW 19 24 10 13 1008.8 - 16.6
24/02:00pm 26.6 27.9 21.6 74 3.3 SW 17 24 9 13 1009.1 - 16.6
24/01:30pm 26.9 29.0 22.5 77 3.0 SSW 15 20 8 11 1009.2 - 16.4
24/01:00pm 24.9 27.8 22.4 86 1.7 SW 11 15 6 8 1010.0 - 16.4
24/12:30pm 23.6 27.0 22.0 91 1.1 NW 7 11 4 6 1010.2 - 16.4
24/12:00pm 23.4 23.7 22.2 93 0.8 WSW 24 35 13 19 1010.4 1010.3 16.2
24/11:30am 24.3 25.5 22.2 88 1.4 WNW 19 30 10 16 1010.6 - 4.8
24/11:00am 25.3 27.0 24.1 93 0.8 N 22 28 12 15 1010.6 - 3.6
24/10:30am 24.7 27.1 22.9 90 1.2 NNE 15 22 8 12 1010.9 - 1.8
24/10:00am 25.9 27.6 21.6 77 2.9 N 15 19 8 10 1011.3 - 0.0
24/09:30am 25.9 27.6 21.6 77 2.9 NNE 15 19 8 10 1011.4 - 0.0
24/09:00am 25.5 27.2 21.6 79 2.6 NNE 15 19 8 10 1011.4 1011.3 0.0
24/08:30am 25.0 27.9 21.7 82 2.2 NNE 9 13 5 7 1011.0 - 0.0
24/08:00am 23.8 27.3 22.2 91 1.1 NNE 7 9 4 5 1010.7 - 0.0
24/07:30am 21.8 24.7 21.1 96 0.5 N 7 7 4 4 1010.5 - 0.0
24/07:00am 21.6 25.6 20.6 94 0.6 CALM 0 0 0 0 1010.1 - 0.0
24/06:30am 21.7 24.5 20.9 95 0.5 NNW 7 9 4 5 1009.6 - 0.0
24/06:00am 21.8 24.3 21.0 95 0.5 NW 9 11 5 6 1009.3 1009.2 0.0
24/05:30am 22.0 24.8 20.8 93 0.8 NNW 7 9 4 5 1008.7 - 0.0
24/05:00am 22.2 25.0 20.8 92 0.9 NW 7 7 4 4 1008.2 - 0.0
24/04:30am 22.9 25.9 21.2 90 1.1 N 7 7 4 4 1007.9 - 0.0
24/04:00am 23.6 26.7 21.5 88 1.4 W 7 9 4 5 1007.9 - 0.0
24/03:30am 23.6 26.4 21.5 88 1.4 WNW 9 9 5 5 1007.9 - 0.0
24/03:00am 23.9 26.9 22.0 89 1.3 W 9 13 5 7 1008.2 1008.1 0.0
24/02:30am 23.5 25.8 22.1 92 0.9 NNW 13 19 7 10 1007.9 - 0.0
24/02:00am 23.3 25.1 21.9 92 0.9 N 15 20 8 11 1007.5 - 0.0
24/01:30am 23.5 24.5 21.8 90 1.1 N 19 24 10 13 1007.7 - 0.0
24/01:00am 23.6 24.6 21.7 89 1.3 N 19 24 10 13 1008.2 - 0.0
24/12:30am 23.4 25.4 21.5 89 1.3 N 13 17 7 9 1008.6 - 0.0
24/12:00am 23.1 24.7 21.5 91 1.1 N 15 17 8 9 1008.6 1008.5 0.0
 
Date/Time
EST
Temp
°C
App
Temp
°C
Dew
Point
°C
Rel
Hum
%
Delta-T
°C
Wind Press
QNH
hPa
Press
MSL
hPa
Rain since
9am
mm
Dir  Spd
km/h
Gust
km/h
Spd
kts
Gust
kts
23/11:30pm 23.0 24.9 21.3 90 1.1 N 13 17 7 9 1008.7 - 0.0
23/11:00pm 23.3 25.5 21.2 88 1.4 N 11 13 6 7 1008.9 - 0.0
23/10:30pm 23.4 25.2 21.1 87 1.5 N 13 15 7 8 1009.3 - 0.0
23/10:00pm 24.0 25.5 21.3 85 1.8 NNW 15 19 8 10 1009.5 - 0.0
23/09:30pm 24.3 25.5 21.4 84 1.9 NNW 17 20 9 11 1009.3 - 0.0
23/09:00pm 24.3 25.3 21.0 82 2.2 NNW 17 22 9 12 1009.3 1009.2 0.0
23/08:30pm 24.6 25.6 21.1 81 2.3 N 17 22 9 12 1008.7 - 0.0
23/08:00pm 24.9 25.1 20.6 77 2.8 N 20 30 11 16 1008.4 - 0.0
23/07:30pm 25.3 25.0 20.3 74 3.3 N 22 32 12 17 1008.1 - 0.0
23/07:00pm 25.6 24.6 20.4 73 3.4 N 26 37 14 20 1007.6 - 0.0
23/06:30pm 26.2 24.5 19.8 68 4.2 N 28 41 15 22 1007.2 - 0.0
23/06:00pm 27.2 23.7 19.5 62 5.0 N 37 52 20 28 1007.0 1006.9 0.0
23/05:30pm 28.0 23.6 19.2 58 5.7 N 41 54 22 29 1006.6 - 0.0
23/05:00pm 28.7 23.8 19.1 56 6.2 N 43 54 23 29 1006.2 - 0.0
23/04:30pm 29.5 24.8 18.6 52 7.0 N 41 52 22 28 1006.0 - 0.0
23/04:00pm 30.3 26.1 19.0 50 7.3 N 39 54 21 29 1006.3 - 0.0
23/03:30pm 30.1 25.9 18.8 50 7.3 N 39 54 21 29 1006.4 - 0.0
23/03:12pm 30.1 25.9 18.8 50 7.3 N 39 57 21 31 1006.6 - 0.0
23/03:00pm 30.7 25.9 18.4 47 7.9 N 41 56 22 30 1006.5 1006.4 0.0
23/02:50pm 30.6 26.5 18.3 47 7.9 N 37 57 20 31 1006.5 - 0.0
23/02:30pm 31.2 27.5 19.2 48 7.8 N 37 48 20 26 1006.9 - 0.0
23/02:00pm 30.5 26.4 18.2 47 7.9 N 37 50 20 27 1007.6 - 0.0
23/01:30pm 29.5 25.9 17.7 49 7.5 N 33 44 18 24 1008.3 - 0.0

Other Formats:

Comma delimited format used in spreadsheet applications
http://www.bom.gov.au/fwo/IDQ60801/IDQ60801.94260.axf

JavaScript Object Notation format (JSON) in row-major order
http://www.bom.gov.au/fwo/IDQ60801/IDQ60801.94260.json